createdAt,value
2018-07-27T00:01:31.447Z,99.40
2018-07-27T00:04:00.515Z,99.40
2018-07-27T00:06:29.375Z,99.90
2018-07-27T00:08:58.850Z,99.90
2018-07-27T00:11:27.652Z,99.90
2018-07-27T00:13:56.567Z,99.90
2018-07-27T00:16:25.468Z,99.90
2018-07-27T00:18:54.594Z,99.90
2018-07-27T00:21:23.396Z,99.90
2018-07-27T00:23:52.211Z,99.90
2018-07-27T00:26:21.105Z,99.90
2018-07-27T00:28:50.484Z,99.90
2018-07-27T00:31:19.332Z,99.90
2018-07-27T00:33:49.337Z,99.90
2018-07-27T00:36:18.161Z,99.90
2018-07-27T00:38:47.035Z,99.90
2018-07-27T00:41:16.436Z,99.90
2018-07-27T00:43:45.408Z,99.90
2018-07-27T00:46:14.223Z,99.90
2018-07-27T00:48:43.115Z,99.90
2018-07-27T00:53:40.467Z,99.90
2018-07-27T00:56:09.335Z,99.90
2018-07-27T00:58:38.224Z,99.90
2018-07-27T01:01:07.026Z,99.90
2018-07-27T01:03:35.873Z,99.90
2018-07-27T01:06:04.886Z,99.90
2018-07-27T01:08:33.824Z,99.90
2018-07-27T01:11:02.641Z,99.90
2018-07-27T01:13:32.015Z,99.90
2018-07-27T01:16:00.976Z,99.90
2018-07-27T01:18:29.814Z,99.90
2018-07-27T01:20:58.900Z,99.90
2018-07-27T01:23:27.820Z,99.90
2018-07-27T01:25:56.715Z,99.90
2018-07-27T01:28:25.659Z,99.90
2018-07-27T01:30:54.535Z,99.90
2018-07-27T01:33:23.348Z,99.90
2018-07-27T01:35:52.324Z,99.90
2018-07-27T01:38:21.275Z,99.90
2018-07-27T01:40:50.284Z,99.90
2018-07-27T01:43:19.088Z,99.90
2018-07-27T01:45:47.992Z,99.90
2018-07-27T01:51:21.340Z,99.90
2018-07-27T01:53:50.179Z,99.90
2018-07-27T01:56:19.024Z,99.90
2018-07-27T01:58:47.848Z,99.90
2018-07-27T02:01:16.733Z,99.90
2018-07-27T02:03:45.578Z,99.90
2018-07-27T02:06:14.427Z,99.90
2018-07-27T02:08:43.302Z,99.90
2018-07-27T02:11:12.179Z,99.90
2018-07-27T02:13:41.052Z,99.90
2018-07-27T02:16:09.873Z,99.90
2018-07-27T02:18:38.648Z,99.90
2018-07-27T02:21:07.812Z,99.90
2018-07-27T02:23:36.662Z,99.90
2018-07-27T02:26:05.424Z,99.90
2018-07-27T02:28:34.231Z,99.90
2018-07-27T02:31:03.116Z,99.90
2018-07-27T02:33:31.981Z,99.90
2018-07-27T02:36:00.768Z,99.90
2018-07-27T02:38:29.575Z,99.90
2018-07-27T02:40:58.379Z,99.90
2018-07-27T02:43:27.208Z,99.90
2018-07-27T02:45:56.040Z,99.90
2018-07-27T02:48:24.944Z,99.90
2018-07-27T02:50:53.740Z,99.90
2018-07-27T02:53:22.534Z,99.90
2018-07-27T02:55:51.325Z,99.90
2018-07-27T02:58:20.661Z,99.90
2018-07-27T03:00:50.047Z,99.90
2018-07-27T03:03:18.938Z,99.90
2018-07-27T03:05:47.779Z,99.90
2018-07-27T03:08:16.723Z,99.90
2018-07-27T03:10:45.524Z,99.90
2018-07-27T03:13:14.432Z,99.90
2018-07-27T03:15:43.236Z,99.90
2018-07-27T03:18:12.277Z,99.90
2018-07-27T03:20:41.129Z,99.90
2018-07-27T03:23:09.946Z,99.90
2018-07-27T03:25:38.755Z,99.90
2018-07-27T03:28:07.551Z,99.90
2018-07-27T03:30:36.324Z,99.90
2018-07-27T03:33:05.138Z,99.90
2018-07-27T03:35:33.909Z,99.90
2018-07-27T03:38:02.709Z,99.90
2018-07-27T03:40:31.506Z,99.90
2018-07-27T03:43:00.268Z,99.90
2018-07-27T03:45:29.096Z,99.90
2018-07-27T03:47:57.890Z,99.90
2018-07-27T03:50:26.676Z,99.90
2018-07-27T03:52:55.486Z,99.90
2018-07-27T03:55:24.263Z,99.90
2018-07-27T03:57:53.058Z,99.90
2018-07-27T04:00:21.821Z,99.90
2018-07-27T04:02:50.618Z,99.90
2018-07-27T04:05:19.502Z,99.90
2018-07-27T04:07:48.300Z,99.90
2018-07-27T04:10:17.114Z,99.90
2018-07-27T04:12:45.927Z,99.90
2018-07-27T04:15:14.696Z,99.90
2018-07-27T04:17:59.852Z,99.90
2018-07-27T04:20:28.939Z,99.90
2018-07-27T04:22:57.739Z,99.90
2018-07-27T04:25:26.571Z,99.90
2018-07-27T04:27:54.850Z,99.90
2018-07-27T04:30:23.815Z,99.90
2018-07-27T04:32:52.608Z,99.90
2018-07-27T04:35:21.452Z,99.90
2018-07-27T04:37:50.331Z,99.90
2018-07-27T04:40:19.177Z,99.90
2018-07-27T04:42:47.994Z,99.90
2018-07-27T04:45:16.736Z,99.90
2018-07-27T04:47:45.527Z,99.90
2018-07-27T04:50:14.330Z,99.90
2018-07-27T04:52:43.241Z,99.90
2018-07-27T04:55:12.155Z,99.90
2018-07-27T04:57:40.943Z,99.90
2018-07-27T05:00:09.756Z,99.90
2018-07-27T05:02:38.527Z,99.90
2018-07-27T05:05:07.355Z,99.90
2018-07-27T05:07:36.159Z,99.90
2018-07-27T05:10:10.484Z,99.90
2018-07-27T05:12:39.273Z,99.90
2018-07-27T05:15:08.215Z,99.90
2018-07-27T05:17:37.019Z,99.90
2018-07-27T05:20:05.951Z,99.90
2018-07-27T05:22:34.806Z,99.90
2018-07-27T05:25:03.584Z,99.90
2018-07-27T05:27:32.519Z,99.90
2018-07-27T05:30:01.307Z,99.90
2018-07-27T05:32:30.120Z,99.90
2018-07-27T05:34:58.906Z,99.90
2018-07-27T05:37:27.703Z,99.90
2018-07-27T05:39:56.563Z,99.90
2018-07-27T05:42:25.372Z,99.90
2018-07-27T05:44:54.152Z,99.90
2018-07-27T05:47:22.951Z,99.90
2018-07-27T05:49:51.743Z,99.90
2018-07-27T05:52:20.523Z,99.90
2018-07-27T05:54:49.347Z,99.90
2018-07-27T05:57:18.135Z,99.90
2018-07-27T05:59:46.961Z,99.90
2018-07-27T06:02:15.758Z,99.90
2018-07-27T06:04:44.601Z,99.90
2018-07-27T06:07:13.781Z,99.90
2018-07-27T06:09:42.567Z,99.90
2018-07-27T06:12:11.667Z,99.90
2018-07-27T06:14:40.459Z,99.90
2018-07-27T06:17:09.364Z,99.90
2018-07-27T06:19:38.150Z,99.90
2018-07-27T06:24:45.879Z,99.90
2018-07-27T06:27:14.690Z,99.90
2018-07-27T06:29:43.523Z,99.90
2018-07-27T06:32:12.732Z,99.90
2018-07-27T06:34:42.036Z,99.90
2018-07-27T06:37:11.227Z,99.90
2018-07-27T06:39:43.613Z,99.90
2018-07-27T06:42:12.485Z,99.90
2018-07-27T06:44:41.320Z,99.90
2018-07-27T06:47:10.115Z,99.90
2018-07-27T06:49:40.010Z,99.90
2018-07-27T06:52:08.804Z,99.90
2018-07-27T06:54:37.587Z,99.90
2018-07-27T06:57:06.363Z,99.90
2018-07-27T06:59:35.140Z,99.90
2018-07-27T07:02:03.896Z,99.90
2018-07-27T07:04:32.791Z,99.90
2018-07-27T07:07:01.573Z,99.90
2018-07-27T07:09:30.364Z,99.90
2018-07-27T07:11:59.145Z,99.90
2018-07-27T07:14:27.931Z,99.90
2018-07-27T07:16:56.716Z,99.90
2018-07-27T07:19:25.504Z,99.90
2018-07-27T07:21:54.314Z,99.90
2018-07-27T07:24:23.070Z,99.90
2018-07-27T07:26:51.852Z,99.90
2018-07-27T07:29:20.639Z,99.90
2018-07-27T07:31:49.404Z,99.90
2018-07-27T07:34:18.180Z,99.90
2018-07-27T07:36:46.940Z,99.90
2018-07-27T07:39:15.781Z,99.90
2018-07-27T07:41:44.797Z,99.90
2018-07-27T07:44:13.544Z,99.90
2018-07-27T07:46:42.304Z,99.90
2018-07-27T07:49:11.095Z,99.90
2018-07-27T07:51:39.854Z,99.90
2018-07-27T07:54:08.619Z,99.90
2018-07-27T07:56:37.391Z,99.90
2018-07-27T07:59:06.170Z,99.90
2018-07-27T08:01:34.947Z,99.90
2018-07-27T08:04:03.720Z,99.90
2018-07-27T08:06:32.523Z,99.90
2018-07-27T08:09:01.261Z,99.90
2018-07-27T08:11:30.091Z,99.90
2018-07-27T08:13:58.859Z,99.90
2018-07-27T08:16:27.662Z,99.90
2018-07-27T08:18:56.463Z,99.90
2018-07-27T08:21:26.852Z,99.90
2018-07-27T08:23:56.190Z,99.90
2018-07-27T08:29:18.435Z,99.90
2018-07-27T08:31:48.372Z,99.90
2018-07-27T08:34:17.853Z,99.90
2018-07-27T08:36:46.956Z,99.90
2018-07-27T08:39:20.275Z,99.90
2018-07-27T08:41:49.435Z,99.90
2018-07-27T08:44:19.603Z,99.90
2018-07-27T08:46:48.418Z,99.90
2018-07-27T08:49:17.257Z,99.90
2018-07-27T08:51:46.027Z,99.90
2018-07-27T08:54:14.841Z,99.90
2018-07-27T08:56:43.655Z,99.90
2018-07-27T08:59:12.441Z,99.90
2018-07-27T09:01:41.308Z,99.90
2018-07-27T09:04:10.129Z,99.90
2018-07-27T09:06:38.924Z,99.90
2018-07-27T09:09:09.262Z,99.80
2018-07-27T09:11:38.045Z,99.90
2018-07-27T09:14:06.814Z,99.30
2018-07-27T09:16:35.617Z,99.10
2018-07-27T09:19:04.424Z,98.70
2018-07-27T09:21:33.435Z,98.40
2018-07-27T09:24:02.235Z,98.10
2018-07-27T09:26:31.023Z,97.90
2018-07-27T09:28:59.838Z,96.80
2018-07-27T09:31:28.708Z,96.40
2018-07-27T09:33:57.492Z,97.10
2018-07-27T09:36:26.294Z,96.20
2018-07-27T09:38:55.219Z,94.90
2018-07-27T09:41:24.015Z,95.50
2018-07-27T09:43:52.798Z,97.00
2018-07-27T09:46:21.587Z,95.30
2018-07-27T09:48:53.372Z,95.20
2018-07-27T09:51:23.403Z,90.00
2018-07-27T09:53:52.276Z,91.20
2018-07-27T09:56:21.011Z,91.20
2018-07-27T09:58:49.792Z,90.30
2018-07-27T10:01:26.022Z,88.90
2018-07-27T10:06:23.800Z,87.20
2018-07-27T10:08:52.734Z,80.90
2018-07-27T10:11:21.782Z,80.00
2018-07-27T10:13:50.538Z,75.80
2018-07-27T10:16:19.327Z,80.30
2018-07-27T10:18:48.121Z,76.30
2018-07-27T10:21:16.903Z,78.20
2018-07-27T10:23:45.672Z,73.40
2018-07-27T10:26:14.436Z,73.90
2018-07-27T10:28:43.213Z,70.20
2018-07-27T10:31:12.034Z,75.20
2018-07-27T10:33:40.821Z,75.50
2018-07-27T10:36:09.834Z,75.80
2018-07-27T10:38:38.761Z,76.90
2018-07-27T10:41:07.470Z,75.40
2018-07-27T10:43:36.252Z,70.20
2018-07-27T10:46:06.006Z,69.10
2018-07-27T10:48:34.784Z,71.70
2018-07-27T10:51:03.827Z,70.80
2018-07-27T10:53:32.623Z,68.20
2018-07-27T10:56:01.408Z,66.80
2018-07-27T10:58:30.198Z,66.70
2018-07-27T11:03:27.723Z,66.10
2018-07-27T11:05:56.512Z,67.80
2018-07-27T11:08:25.307Z,67.20
2018-07-27T11:10:55.173Z,66.30
2018-07-27T11:13:23.943Z,64.90
2018-07-27T11:15:52.756Z,67.90
2018-07-27T11:18:21.584Z,62.20
2018-07-27T11:20:50.383Z,67.70
2018-07-27T11:23:19.169Z,64.90
2018-07-27T11:25:47.954Z,65.40
2018-07-27T11:28:16.745Z,64.00
2018-07-27T11:30:45.515Z,63.40
2018-07-27T11:33:14.309Z,64.00
2018-07-27T11:35:43.088Z,65.60
2018-07-27T11:38:11.863Z,65.80
2018-07-27T11:40:40.675Z,66.80
2018-07-27T11:43:09.544Z,68.80
2018-07-27T11:45:38.323Z,69.60
2018-07-27T11:48:07.298Z,68.30
2018-07-27T11:50:36.088Z,69.30
2018-07-27T11:53:04.927Z,70.00
2018-07-27T11:55:33.760Z,71.80
2018-07-27T11:58:02.552Z,72.60
2018-07-27T12:00:31.352Z,72.50
2018-07-27T12:03:00.156Z,73.90
2018-07-27T12:05:28.954Z,73.20
2018-07-27T12:07:57.784Z,71.90
2018-07-27T12:10:26.572Z,72.60
2018-07-27T12:12:55.624Z,72.40
2018-07-27T12:15:24.418Z,72.90
2018-07-27T12:17:53.216Z,70.90
2018-07-27T12:20:22.072Z,72.80
2018-07-27T12:22:50.808Z,71.00
2018-07-27T12:25:20.656Z,72.10
2018-07-27T12:27:49.428Z,69.10
2018-07-27T12:30:18.209Z,68.20
2018-07-27T12:32:47.035Z,67.40
2018-07-27T12:35:15.764Z,64.20
2018-07-27T12:37:44.568Z,65.30
2018-07-27T12:40:13.487Z,64.50
2018-07-27T12:42:42.304Z,62.60
2018-07-27T12:45:11.033Z,61.00
2018-07-27T12:47:39.850Z,60.60
2018-07-27T12:50:08.641Z,59.50
2018-07-27T12:52:37.421Z,60.20
2018-07-27T12:55:06.743Z,60.30
2018-07-27T12:57:35.562Z,57.70
2018-07-27T13:00:05.248Z,57.60
2018-07-27T13:02:34.020Z,56.50
2018-07-27T13:05:02.837Z,55.80
2018-07-27T13:07:31.596Z,56.30
2018-07-27T13:10:07.014Z,54.60
2018-07-27T13:12:37.238Z,54.50
2018-07-27T13:15:06.945Z,53.80
2018-07-27T13:17:35.901Z,51.50
2018-07-27T13:20:05.315Z,46.70
2018-07-27T13:22:34.242Z,50.30
2018-07-27T13:25:02.997Z,51.80
2018-07-27T13:27:31.741Z,51.00
2018-07-27T13:30:00.527Z,49.40
2018-07-27T13:32:29.486Z,49.90
2018-07-27T13:34:59.284Z,49.60
2018-07-27T13:37:33.420Z,51.50
2018-07-27T13:40:03.338Z,50.90
2018-07-27T13:42:33.456Z,50.90
2018-07-27T13:45:02.398Z,51.90
2018-07-27T13:47:31.183Z,50.30
2018-07-27T13:50:00.068Z,50.50
2018-07-27T13:52:28.875Z,51.50
2018-07-27T13:54:57.639Z,50.80
2018-07-27T13:57:26.410Z,51.90
2018-07-27T13:59:55.316Z,50.30
2018-07-27T14:02:24.075Z,51.20
2018-07-27T14:04:52.835Z,49.30
2018-07-27T14:07:21.624Z,49.80
2018-07-27T14:09:50.800Z,49.90
2018-07-27T14:12:19.571Z,52.20
2018-07-27T14:14:48.323Z,51.80
2018-07-27T14:17:17.094Z,51.20
2018-07-27T14:19:45.871Z,50.20
2018-07-27T14:22:14.635Z,51.00
2018-07-27T14:24:43.407Z,51.10
2018-07-27T14:27:12.235Z,50.10
2018-07-27T14:29:41.010Z,52.00
2018-07-27T14:32:09.788Z,50.90
2018-07-27T14:34:38.546Z,49.30
2018-07-27T14:37:07.439Z,48.70
2018-07-27T14:39:36.308Z,48.30
2018-07-27T14:42:05.188Z,47.90
2018-07-27T14:44:33.987Z,48.30
2018-07-27T14:47:09.429Z,48.10
2018-07-27T14:49:38.216Z,47.30
2018-07-27T14:52:07.078Z,47.90
2018-07-27T14:54:36.311Z,49.30
2018-07-27T14:57:05.199Z,47.00
2018-07-27T14:59:34.003Z,48.40
2018-07-27T15:02:02.795Z,48.80
2018-07-27T15:04:31.660Z,48.50
2018-07-27T15:07:00.411Z,48.50
2018-07-27T15:09:29.203Z,49.20
2018-07-27T15:11:57.972Z,48.40
2018-07-27T15:14:26.763Z,47.80
2018-07-27T15:16:55.532Z,49.50
2018-07-27T15:19:24.333Z,49.50
2018-07-27T15:21:53.491Z,49.50
2018-07-27T15:24:22.358Z,48.40
2018-07-27T15:26:51.119Z,48.90
2018-07-27T15:29:19.917Z,49.20
2018-07-27T15:31:48.717Z,48.50
2018-07-27T15:34:17.508Z,49.60
2018-07-27T15:36:46.283Z,48.20
2018-07-27T15:39:15.060Z,48.50
2018-07-27T15:41:43.832Z,50.50
2018-07-27T15:44:12.607Z,51.80
2018-07-27T15:46:41.374Z,51.50
2018-07-27T15:49:12.688Z,52.20
2018-07-27T15:51:42.109Z,52.70
2018-07-27T15:54:10.885Z,53.80
2018-07-27T15:56:39.655Z,53.40
2018-07-27T15:59:08.455Z,53.90
2018-07-27T16:01:37.275Z,53.30
2018-07-27T16:04:06.059Z,54.50
2018-07-27T16:06:34.836Z,54.30
2018-07-27T16:09:04.551Z,55.00
2018-07-27T16:11:33.323Z,54.80
2018-07-27T16:14:02.144Z,55.00
2018-07-27T16:16:30.896Z,55.40
2018-07-27T16:21:28.225Z,56.30
2018-07-27T16:23:56.996Z,56.40
2018-07-27T16:26:25.835Z,57.30
2018-07-27T16:28:54.606Z,57.10
2018-07-27T16:31:23.408Z,57.30
2018-07-27T16:33:52.180Z,57.80
2018-07-27T16:36:20.947Z,58.50
2018-07-27T16:38:49.742Z,58.40
2018-07-27T16:41:18.524Z,58.20
2018-07-27T16:43:47.291Z,59.60
2018-07-27T16:46:16.171Z,60.40
2018-07-27T16:48:44.960Z,60.90
2018-07-27T16:51:13.775Z,61.70
2018-07-27T16:53:42.551Z,62.50
2018-07-27T16:56:11.767Z,63.10
2018-07-27T16:58:40.523Z,62.80
2018-07-27T17:01:09.393Z,63.90
2018-07-27T17:03:38.172Z,66.90
2018-07-27T17:06:06.973Z,69.00
2018-07-27T17:08:35.723Z,70.50
2018-07-27T17:11:04.515Z,69.10
2018-07-27T17:13:33.365Z,69.30
2018-07-27T17:16:02.186Z,68.20
2018-07-27T17:18:31.087Z,68.70
2018-07-27T17:20:59.927Z,67.10
2018-07-27T17:23:28.696Z,65.70
2018-07-27T17:25:57.497Z,65.90
2018-07-27T17:28:26.314Z,65.00
2018-07-27T17:30:55.065Z,64.10
2018-07-27T17:33:23.831Z,64.30
2018-07-27T17:38:21.079Z,62.50
2018-07-27T17:41:09.227Z,63.10
2018-07-27T17:43:38.036Z,62.70
2018-07-27T17:46:07.340Z,64.00
2018-07-27T17:48:36.182Z,64.50
2018-07-27T17:51:05.472Z,65.60
2018-07-27T17:53:34.374Z,65.80
2018-07-27T17:56:03.184Z,66.50
2018-07-27T17:58:32.266Z,67.70
2018-07-27T18:01:01.877Z,69.90
2018-07-27T18:03:30.678Z,71.10
2018-07-27T18:05:59.505Z,71.30
2018-07-27T18:08:28.375Z,71.90
2018-07-27T18:10:57.163Z,71.80
2018-07-27T18:13:25.987Z,72.80
2018-07-27T18:15:54.831Z,73.80
2018-07-27T18:18:23.597Z,75.20
2018-07-27T18:20:52.372Z,77.50
2018-07-27T18:23:21.151Z,77.00
2018-07-27T18:25:50.062Z,75.80
2018-07-27T18:28:18.828Z,76.10
2018-07-27T18:30:47.616Z,76.80
2018-07-27T18:33:16.410Z,76.90
2018-07-27T18:35:45.149Z,77.40
2018-07-27T18:38:13.936Z,77.90
2018-07-27T18:40:42.714Z,78.00
2018-07-27T18:45:39.947Z,80.00
2018-07-27T18:48:08.758Z,79.90
2018-07-27T18:50:37.547Z,80.00
2018-07-27T18:53:06.348Z,80.10
2018-07-27T18:55:35.143Z,80.70
2018-07-27T18:58:04.007Z,80.70
2018-07-27T19:00:32.803Z,81.40
2018-07-27T19:03:01.601Z,81.00
2018-07-27T19:05:30.451Z,81.00
2018-07-27T19:07:59.259Z,82.10
2018-07-27T19:10:28.132Z,81.70
2018-07-27T19:12:56.919Z,82.10
2018-07-27T19:15:25.856Z,82.90
2018-07-27T19:17:54.668Z,83.30
2018-07-27T19:20:23.455Z,83.90
2018-07-27T19:22:52.251Z,84.60
2018-07-27T19:25:21.039Z,85.10
2018-07-27T19:27:49.824Z,85.70
2018-07-27T19:30:18.608Z,86.70
2018-07-27T19:32:47.412Z,86.40
2018-07-27T19:35:16.186Z,87.10
2018-07-27T19:37:44.984Z,86.60
2018-07-27T19:40:13.764Z,87.00
2018-07-27T19:42:42.561Z,87.70
2018-07-27T19:45:11.347Z,88.40
2018-07-27T19:47:40.205Z,88.60
2018-07-27T19:50:10.111Z,88.50
2018-07-27T19:52:38.949Z,89.00
2018-07-27T19:55:07.861Z,88.90
2018-07-27T19:57:36.874Z,89.60
2018-07-27T20:00:06.565Z,90.00
2018-07-27T20:02:35.451Z,89.20
2018-07-27T20:05:04.314Z,87.80
2018-07-27T20:07:33.112Z,83.60
2018-07-27T20:10:02.010Z,82.20
2018-07-27T20:12:30.895Z,81.20
2018-07-27T20:14:59.699Z,81.50
2018-07-27T20:17:28.503Z,80.80
2018-07-27T20:19:57.299Z,80.00
2018-07-27T20:22:26.098Z,80.40
2018-07-27T20:24:54.928Z,79.40
2018-07-27T20:27:23.731Z,79.60
2018-07-27T20:29:52.874Z,79.30
2018-07-27T20:32:21.646Z,79.50
2018-07-27T20:34:50.447Z,80.00
2018-07-27T20:37:19.288Z,79.30
2018-07-27T20:39:48.080Z,79.70
2018-07-27T20:42:16.895Z,79.60
2018-07-27T20:44:45.688Z,79.50
2018-07-27T20:47:14.476Z,79.80
2018-07-27T20:49:43.259Z,79.50
2018-07-27T20:52:12.060Z,79.50
2018-07-27T20:54:40.835Z,79.50
2018-07-27T20:57:09.702Z,79.10
2018-07-27T20:59:38.454Z,79.00
2018-07-27T21:02:07.247Z,79.00
2018-07-27T21:04:36.123Z,79.10
2018-07-27T21:07:04.931Z,78.90
2018-07-27T21:09:33.728Z,79.10
2018-07-27T21:12:02.516Z,79.20
2018-07-27T21:14:31.298Z,79.30
2018-07-27T21:17:00.085Z,79.30
2018-07-27T21:19:28.974Z,79.10
2018-07-27T21:21:57.838Z,79.00
2018-07-27T21:24:26.652Z,79.10
2018-07-27T21:26:55.459Z,78.90
2018-07-27T21:29:24.251Z,79.10
2018-07-27T21:31:53.021Z,79.30
2018-07-27T21:34:23.043Z,78.80
2018-07-27T21:36:51.910Z,78.40
2018-07-27T21:39:20.741Z,78.60
2018-07-27T21:41:49.630Z,78.10
2018-07-27T21:44:18.435Z,77.70
2018-07-27T21:46:47.248Z,77.40
2018-07-27T21:49:16.040Z,78.00
2018-07-27T21:51:44.902Z,77.80
2018-07-27T21:54:13.663Z,77.50
2018-07-27T21:56:42.460Z,77.30
2018-07-27T21:59:11.272Z,77.00
2018-07-27T22:01:41.115Z,77.20
2018-07-27T22:04:09.913Z,77.70
2018-07-27T22:06:38.827Z,77.80
2018-07-27T22:09:09.179Z,77.80
2018-07-27T22:11:38.180Z,77.80
2018-07-27T22:14:06.992Z,77.80
2018-07-27T22:16:35.780Z,77.60
2018-07-27T22:19:04.624Z,77.90
2018-07-27T22:21:33.511Z,78.00
2018-07-27T22:24:02.445Z,77.70
2018-07-27T22:26:31.227Z,78.20
2018-07-27T22:29:00.061Z,77.00
2018-07-27T22:31:28.904Z,77.80
2018-07-27T22:33:57.708Z,77.70
2018-07-27T22:36:26.545Z,78.10
2018-07-27T22:38:55.475Z,78.40
2018-07-27T22:41:24.269Z,78.30
2018-07-27T22:43:53.156Z,78.80
2018-07-27T22:46:21.951Z,79.10
2018-07-27T22:48:50.719Z,79.20
2018-07-27T22:51:19.545Z,79.30
2018-07-27T22:53:48.346Z,79.30
2018-07-27T22:56:17.148Z,79.70
2018-07-27T22:58:45.944Z,80.10
2018-07-27T23:01:14.776Z,80.40
2018-07-27T23:03:43.643Z,80.90
2018-07-27T23:06:12.408Z,80.90
2018-07-27T23:08:41.257Z,81.00
2018-07-27T23:11:10.073Z,80.80
2018-07-27T23:13:38.859Z,81.40
2018-07-27T23:16:07.647Z,81.50
2018-07-27T23:18:36.443Z,81.40
2018-07-27T23:21:05.283Z,81.70
2018-07-27T23:23:34.098Z,81.50
2018-07-27T23:26:02.880Z,81.10
2018-07-27T23:28:31.704Z,81.20
2018-07-27T23:31:00.502Z,81.30
2018-07-27T23:33:29.295Z,81.50
2018-07-27T23:35:58.088Z,81.80
2018-07-27T23:38:26.938Z,82.90
2018-07-27T23:40:55.735Z,83.10
2018-07-27T23:43:24.551Z,83.00
2018-07-27T23:45:53.347Z,83.00
2018-07-27T23:48:22.151Z,83.20
2018-07-27T23:50:50.978Z,84.20
2018-07-27T23:53:19.814Z,86.30
2018-07-27T23:55:48.597Z,87.40
2018-07-27T23:58:17.396Z,88.20
